sensor_id;sensor_type;location;lat;lon;timestamp;pressure;altitude;pressure_sealevel;temperature;humidity
38253;BME280;24785;52.372;20.672;2023-02-11T00:00:32;101995.69;;;1.41;100.00
38253;BME280;24785;52.372;20.672;2023-02-11T00:10:55;101982.47;;;1.41;100.00
38253;BME280;24785;52.372;20.672;2023-02-11T00:20:55;101968.50;;;1.32;100.00
38253;BME280;24785;52.372;20.672;2023-02-11T00:30:56;101935.19;;;1.31;100.00
38253;BME280;24785;52.372;20.672;2023-02-11T00:40:57;101913.75;;;1.26;100.00
38253;BME280;24785;52.372;20.672;2023-02-11T00:50:58;101888.22;;;1.41;100.00
38253;BME280;24785;52.372;20.672;2023-02-11T01:00:59;101880.19;;;1.57;100.00
38253;BME280;24785;52.372;20.672;2023-02-11T01:11:03;101851.72;;;1.45;100.00
38253;BME280;24785;52.372;20.672;2023-02-11T01:21:04;101803.00;;;1.47;100.00
38253;BME280;24785;52.372;20.672;2023-02-11T01:31:05;101818.66;;;1.49;100.00
38253;BME280;24785;52.372;20.672;2023-02-11T01:41:08;101822.78;;;1.51;100.00
38253;BME280;24785;52.372;20.672;2023-02-11T01:51:13;101782.03;;;1.46;100.00
38253;BME280;24785;52.372;20.672;2023-02-11T02:01:18;101742.66;;;1.36;100.00
38253;BME280;24785;52.372;20.672;2023-02-11T02:11:21;101723.81;;;1.24;100.00
38253;BME280;24785;52.372;20.672;2023-02-11T02:32:12;101694.47;;;1.34;100.00
38253;BME280;24785;52.372;20.672;2023-02-11T02:42:16;101699.16;;;1.47;100.00
38253;BME280;24785;52.372;20.672;2023-02-11T02:52:22;101672.94;;;1.45;100.00
38253;BME280;24785;52.372;20.672;2023-02-11T03:02:34;101658.97;;;1.51;100.00
38253;BME280;24785;52.372;20.672;2023-02-11T03:12:39;101644.31;;;1.49;100.00
38253;BME280;24785;52.372;20.672;2023-02-11T03:22:47;101628.28;;;1.50;100.00
38253;BME280;24785;52.372;20.672;2023-02-11T03:32:50;101609.16;;;1.48;100.00
38253;BME280;24785;52.372;20.672;2023-02-11T03:43:00;101600.97;;;1.43;100.00
38253;BME280;24785;52.372;20.672;2023-02-11T03:53:03;101574.81;;;1.48;100.00
38253;BME280;24785;52.372;20.672;2023-02-11T04:03:04;101546.41;;;1.50;100.00
38253;BME280;24785;52.372;20.672;2023-02-11T04:13:05;101542.94;;;1.35;100.00
38253;BME280;24785;52.372;20.672;2023-02-11T04:23:06;101503.63;;;1.25;100.00
38253;BME280;24785;52.372;20.672;2023-02-11T04:33:07;101469.31;;;1.25;100.00
38253;BME280;24785;52.372;20.672;2023-02-11T04:43:08;101452.47;;;1.26;100.00
38253;BME280;24785;52.372;20.672;2023-02-11T04:53:09;101428.63;;;1.20;100.00
38253;BME280;24785;52.372;20.672;2023-02-11T05:03:10;101436.13;;;1.38;99.25
38253;BME280;24785;52.372;20.672;2023-02-11T05:13:11;101400.69;;;1.47;97.35
38253;BME280;24785;52.372;20.672;2023-02-11T05:23:12;101404.50;;;1.44;97.18
38253;BME280;24785;52.372;20.672;2023-02-11T05:33:12;101397.03;;;1.48;96.78
38253;BME280;24785;52.372;20.672;2023-02-11T05:43:13;101379.97;;;1.50;97.01
38253;BME280;24785;52.372;20.672;2023-02-11T05:53:14;101364.50;;;1.47;97.07
38253;BME280;24785;52.372;20.672;2023-02-11T06:03:15;101355.63;;;1.55;96.43
38253;BME280;24785;52.372;20.672;2023-02-11T06:13:16;101340.41;;;1.57;96.80
38253;BME280;24785;52.372;20.672;2023-02-11T06:23:18;101344.50;;;1.60;96.83
38253;BME280;24785;52.372;20.672;2023-02-11T06:33:18;101326.00;;;1.60;97.56
38253;BME280;24785;52.372;20.672;2023-02-11T06:43:19;101331.09;;;1.61;97.61
38253;BME280;24785;52.372;20.672;2023-02-11T06:53:20;101295.34;;;1.65;98.97
38253;BME280;24785;52.372;20.672;2023-02-11T07:03:21;101312.06;;;1.44;100.00
38253;BME280;24785;52.372;20.672;2023-02-11T07:13:22;101310.13;;;1.32;100.00
38253;BME280;24785;52.372;20.672;2023-02-11T07:23:23;101304.53;;;1.20;100.00
38253;BME280;24785;52.372;20.672;2023-02-11T07:33:23;101285.72;;;1.30;100.00
38253;BME280;24785;52.372;20.672;2023-02-11T07:43:24;101287.69;;;1.42;100.00
38253;BME280;24785;52.372;20.672;2023-02-11T07:53:25;101274.75;;;1.54;100.00
38253;BME280;24785;52.372;20.672;2023-02-11T08:03:26;101260.09;;;1.51;100.00
38253;BME280;24785;52.372;20.672;2023-02-11T08:13:27;101249.66;;;1.71;100.00
38253;BME280;24785;52.372;20.672;2023-02-11T08:23:29;101251.59;;;1.56;100.00
38253;BME280;24785;52.372;20.672;2023-02-11T08:33:29;101256.84;;;1.49;100.00
38253;BME280;24785;52.372;20.672;2023-02-11T08:43:30;101193.97;;;1.73;100.00
38253;BME280;24785;52.372;20.672;2023-02-11T08:53:33;101175.47;;;1.73;100.00
38253;BME280;24785;52.372;20.672;2023-02-11T09:03:34;101164.66;;;1.68;100.00
38253;BME280;24785;52.372;20.672;2023-02-11T09:13:35;101161.44;;;1.72;100.00
38253;BME280;24785;52.372;20.672;2023-02-11T09:23:36;101169.13;;;1.61;100.00
38253;BME280;24785;52.372;20.672;2023-02-11T09:33:39;101190.47;;;1.66;100.00
38253;BME280;24785;52.372;20.672;2023-02-11T09:43:44;101182.84;;;1.43;100.00
38253;BME280;24785;52.372;20.672;2023-02-11T09:53:48;101200.94;;;1.46;100.00
38253;BME280;24785;52.372;20.672;2023-02-11T10:24:27;101103.66;;;1.49;100.00
38253;BME280;24785;52.372;20.672;2023-02-11T10:34:28;101056.13;;;1.56;100.00
38253;BME280;24785;52.372;20.672;2023-02-11T10:44:38;101050.22;;;1.54;100.00
38253;BME280;24785;52.372;20.672;2023-02-11T10:54:39;101054.09;;;1.65;100.00
38253;BME280;24785;52.372;20.672;2023-02-11T11:04:44;101084.22;;;1.77;100.00
38253;BME280;24785;52.372;20.672;2023-02-11T11:14:57;101085.00;;;1.71;100.00
38253;BME280;24785;52.372;20.672;2023-02-11T11:24:58;101071.63;;;1.85;100.00
38253;BME280;24785;52.372;20.672;2023-02-11T11:35:07;101066.13;;;1.87;100.00
38253;BME280;24785;52.372;20.672;2023-02-11T11:45:26;101032.19;;;1.77;100.00
38253;BME280;24785;52.372;20.672;2023-02-11T11:55:35;101016.16;;;1.92;100.00
38253;BME280;24785;52.372;20.672;2023-02-11T12:05:45;101006.59;;;2.04;100.00
38253;BME280;24785;52.372;20.672;2023-02-11T12:16:07;101010.88;;;2.12;100.00
38253;BME280;24785;52.372;20.672;2023-02-11T12:46:49;101010.25;;;2.43;100.00
38253;BME280;24785;52.372;20.672;2023-02-11T12:57:00;101021.41;;;2.65;100.00
38253;BME280;24785;52.372;20.672;2023-02-11T13:07:10;101022.00;;;2.73;100.00
38253;BME280;24785;52.372;20.672;2023-02-11T13:17:33;101030.94;;;2.79;100.00
38253;BME280;24785;52.372;20.672;2023-02-11T13:27:59;101036.66;;;2.69;100.00
38253;BME280;24785;52.372;20.672;2023-02-11T13:38:05;101027.28;;;2.80;100.00
38253;BME280;24785;52.372;20.672;2023-02-11T13:48:21;101017.72;;;2.79;100.00
38253;BME280;24785;52.372;20.672;2023-02-11T14:08:27;101025.44;;;2.87;100.00
38253;BME280;24785;52.372;20.672;2023-02-11T14:39:31;101068.78;;;2.99;100.00
38253;BME280;24785;52.372;20.672;2023-02-11T14:49:38;101066.78;;;2.88;100.00
38253;BME280;24785;52.372;20.672;2023-02-11T14:59:57;101060.66;;;2.94;100.00
38253;BME280;24785;52.372;20.672;2023-02-11T15:09:59;101057.56;;;3.04;100.00
38253;BME280;24785;52.372;20.672;2023-02-11T15:20:00;101062.81;;;3.17;100.00
38253;BME280;24785;52.372;20.672;2023-02-11T15:30:19;101065.84;;;3.21;100.00
38253;BME280;24785;52.372;20.672;2023-02-11T15:40:29;101078.66;;;3.30;100.00
38253;BME280;24785;52.372;20.672;2023-02-11T15:50:33;101097.41;;;3.35;100.00
38253;BME280;24785;52.372;20.672;2023-02-11T16:00:46;101096.38;;;3.43;100.00
38253;BME280;24785;52.372;20.672;2023-02-11T16:10:59;101113.44;;;3.54;100.00
38253;BME280;24785;52.372;20.672;2023-02-11T16:21:04;101114.44;;;3.59;100.00
38253;BME280;24785;52.372;20.672;2023-02-11T16:31:05;101136.16;;;3.74;100.00
38253;BME280;24785;52.372;20.672;2023-02-11T16:41:05;101151.91;;;3.69;100.00
38253;BME280;24785;52.372;20.672;2023-02-11T16:51:09;101163.09;;;3.71;100.00
38253;BME280;24785;52.372;20.672;2023-02-11T17:01:11;101177.78;;;3.81;100.00
38253;BME280;24785;52.372;20.672;2023-02-11T17:11:12;101186.72;;;3.86;100.00
38253;BME280;24785;52.372;20.672;2023-02-11T17:21:16;101219.13;;;3.88;100.00
38253;BME280;24785;52.372;20.672;2023-02-11T17:31:17;101231.19;;;3.84;100.00
38253;BME280;24785;52.372;20.672;2023-02-11T17:41:19;101240.78;;;3.85;100.00
38253;BME280;24785;52.372;20.672;2023-02-11T17:51:25;101265.00;;;3.95;100.00
38253;BME280;24785;52.372;20.672;2023-02-11T18:01:28;101288.22;;;4.06;100.00
38253;BME280;24785;52.372;20.672;2023-02-11T18:11:30;101298.00;;;4.13;100.00
38253;BME280;24785;52.372;20.672;2023-02-11T18:21:32;101295.16;;;4.07;100.00
38253;BME280;24785;52.372;20.672;2023-02-11T18:31:33;101313.72;;;4.07;100.00
38253;BME280;24785;52.372;20.672;2023-02-11T18:41:35;101337.59;;;4.07;100.00
38253;BME280;24785;52.372;20.672;2023-02-11T18:51:35;101360.03;;;4.11;100.00
38253;BME280;24785;52.372;20.672;2023-02-11T19:01:36;101376.97;;;4.10;100.00
38253;BME280;24785;52.372;20.672;2023-02-11T19:11:39;101384.94;;;4.04;100.00
38253;BME280;24785;52.372;20.672;2023-02-11T19:21:47;101398.03;;;3.86;100.00
38253;BME280;24785;52.372;20.672;2023-02-11T19:31:48;101417.56;;;3.78;100.00
38253;BME280;24785;52.372;20.672;2023-02-11T19:41:49;101425.75;;;3.96;100.00
38253;BME280;24785;52.372;20.672;2023-02-11T19:51:51;101444.31;;;3.90;100.00
38253;BME280;24785;52.372;20.672;2023-02-11T20:01:53;101469.41;;;3.81;100.00
38253;BME280;24785;52.372;20.672;2023-02-11T20:11:54;101489.81;;;3.87;100.00
38253;BME280;24785;52.372;20.672;2023-02-11T20:21:55;101503.28;;;3.98;100.00
38253;BME280;24785;52.372;20.672;2023-02-11T20:31:56;101532.03;;;4.08;100.00
38253;BME280;24785;52.372;20.672;2023-02-11T20:41:57;101550.81;;;4.06;100.00
38253;BME280;24785;52.372;20.672;2023-02-11T20:51:58;101584.25;;;4.01;100.00
38253;BME280;24785;52.372;20.672;2023-02-11T21:01:59;101612.22;;;3.97;100.00
38253;BME280;24785;52.372;20.672;2023-02-11T21:12:01;101647.91;;;3.94;100.00
38253;BME280;24785;52.372;20.672;2023-02-11T21:22:02;101671.19;;;3.58;100.00
38253;BME280;24785;52.372;20.672;2023-02-11T21:32:03;101695.59;;;3.12;100.00
38253;BME280;24785;52.372;20.672;2023-02-11T21:42:04;101734.47;;;2.83;100.00
38253;BME280;24785;52.372;20.672;2023-02-11T21:52:04;101758.34;;;2.69;100.00
38253;BME280;24785;52.372;20.672;2023-02-11T22:02:05;101772.09;;;2.79;100.00
38253;BME280;24785;52.372;20.672;2023-02-11T22:12:06;101784.25;;;2.73;100.00
38253;BME280;24785;52.372;20.672;2023-02-11T22:22:08;101828.84;;;2.55;100.00
38253;BME280;24785;52.372;20.672;2023-02-11T22:32:09;101837.28;;;2.44;100.00
38253;BME280;24785;52.372;20.672;2023-02-11T22:42:09;101872.41;;;2.23;100.00
38253;BME280;24785;52.372;20.672;2023-02-11T22:52:10;101890.56;;;1.97;100.00
38253;BME280;24785;52.372;20.672;2023-02-11T23:02:11;101927.59;;;1.74;100.00
38253;BME280;24785;52.372;20.672;2023-02-11T23:12:12;101934.91;;;1.49;100.00
38253;BME280;24785;52.372;20.672;2023-02-11T23:22:12;101946.31;;;0.87;100.00
38253;BME280;24785;52.372;20.672;2023-02-11T23:32:13;101966.91;;;0.53;100.00
38253;BME280;24785;52.372;20.672;2023-02-11T23:42:14;101984.72;;;0.43;100.00
38253;BME280;24785;52.372;20.672;2023-02-11T23:52:15;101999.56;;;0.52;100.00
